Time;durP1;ratioP1;P1;durP2;ratioP2;P2;SDS_P1;SDS_P2;PMS_P1;PMS_P2;Temp;Humidity;BMP_temperature;BMP_pressure;BME280_temperature;BME280_humidity;BME280_pressure;Samples;Min_cycle;Max_cycle;Signal;HPM_P1;HPM_P2
2022/11/18 00:01:17;;;;;;;1.30;0.73;;;1.00;99.90;;;;;;4944257;28;20134;-67
2022/11/18 00:03:44;;;;;;;1.63;0.97;;;1.00;99.90;;;;;;4941539;28;20058;-68
2022/11/18 00:06:15;;;;;;;3.67;1.10;;;1.00;99.90;;;;;;4942218;28;20461;-72
2022/11/18 00:08:43;;;;;;;2.50;1.10;;;1.00;99.90;;;;;;4941907;28;20103;-67
2022/11/18 00:14:17;;;;;;;1.80;1.15;;;1.00;99.90;;;;;;4941805;28;20039;-66
2022/11/18 00:16:47;;;;;;;1.08;0.85;;;0.90;99.90;;;;;;4941764;28;20067;-66
2022/11/18 00:19:14;;;;;;;0.95;0.75;;;0.90;99.90;;;;;;4936248;28;20044;-66
2022/11/18 00:21:41;;;;;;;0.73;0.65;;;0.80;99.90;;;;;;4942284;28;20129;-66
2022/11/18 00:24:09;;;;;;;1.52;0.90;;;0.80;99.90;;;;;;4938505;28;20597;-68
2022/11/18 00:26:36;;;;;;;1.88;0.82;;;0.80;99.90;;;;;;4940327;28;20047;-67
2022/11/18 00:29:03;;;;;;;2.35;0.68;;;0.70;99.90;;;;;;4940677;28;20039;-69
2022/11/18 00:31:30;;;;;;;2.17;0.93;;;0.70;99.90;;;;;;4939699;28;20517;-68
2022/11/18 00:33:57;;;;;;;2.20;1.23;;;0.70;99.90;;;;;;4939823;28;20153;-66
2022/11/18 00:36:24;;;;;;;3.28;1.10;;;0.70;99.90;;;;;;4940572;28;20422;-68
2022/11/18 00:38:50;;;;;;;3.72;1.10;;;0.70;99.90;;;;;;4941607;28;20170;-66
2022/11/18 00:41:17;;;;;;;2.97;1.00;;;0.70;99.90;;;;;;4941998;28;20039;-67
2022/11/18 00:43:44;;;;;;;1.30;0.90;;;0.70;99.90;;;;;;4942352;28;20050;-67
2022/11/18 00:46:12;;;;;;;1.67;0.88;;;0.70;99.90;;;;;;4936771;28;20047;-65
2022/11/18 00:48:39;;;;;;;1.70;0.95;;;0.70;99.90;;;;;;4938300;28;20107;-67
2022/11/18 00:51:16;;;;;;;1.08;0.80;;;0.70;99.90;;;;;;4938147;28;20107;-66
2022/11/18 00:53:43;;;;;;;3.15;1.45;;;0.70;99.90;;;;;;4945387;28;20043;-70
2022/11/18 00:56:10;;;;;;;1.92;1.30;;;0.70;99.90;;;;;;4942965;28;20142;-67
2022/11/18 00:58:37;;;;;;;4.80;1.20;;;0.70;99.90;;;;;;4940325;28;20057;-69
2022/11/18 01:01:04;;;;;;;1.83;1.23;;;0.70;99.90;;;;;;4942075;28;20141;-67
2022/11/18 01:03:31;;;;;;;2.65;1.65;;;0.70;99.90;;;;;;4939522;28;20142;-67
2022/11/18 01:05:58;;;;;;;1.85;1.50;;;0.70;99.90;;;;;;4941040;28;20051;-70
2022/11/18 01:08:25;;;;;;;3.42;1.42;;;0.60;99.90;;;;;;4936960;28;20443;-67
2022/11/18 01:10:52;;;;;;;2.05;1.08;;;0.60;99.90;;;;;;4939497;28;20130;-69
2022/11/18 01:13:22;;;;;;;0.73;0.70;;;0.60;99.90;;;;;;4942288;28;20046;-69
2022/11/18 01:15:52;;;;;;;1.50;0.82;;;0.60;99.90;;;;;;4938795;28;20541;-67
2022/11/18 01:18:22;;;;;;;1.83;0.85;;;0.60;99.90;;;;;;4937807;28;20047;-66
2022/11/18 01:20:49;;;;;;;0.82;0.75;;;0.70;99.90;;;;;;4941483;28;20051;-67
2022/11/18 01:23:18;;;;;;;1.00;0.88;;;0.80;99.90;;;;;;4941837;28;20469;-72
2022/11/18 01:25:47;;;;;;;1.25;0.82;;;0.80;99.90;;;;;;4940777;28;20458;-68
2022/11/18 01:28:16;;;;;;;2.30;1.00;;;0.90;99.90;;;;;;4936398;28;20043;-66
2022/11/18 01:30:50;;;;;;;1.88;1.15;;;1.00;99.90;;;;;;4939709;28;20490;-69
2022/11/18 01:33:16;;;;;;;2.90;1.08;;;1.10;99.90;;;;;;4940511;28;20061;-66
2022/11/18 01:35:44;;;;;;;1.88;1.13;;;1.20;99.90;;;;;;4943269;28;20059;-68
2022/11/18 01:38:12;;;;;;;1.75;0.98;;;1.20;99.90;;;;;;4937202;28;20122;-66
2022/11/18 01:40:40;;;;;;;1.60;1.15;;;1.30;99.90;;;;;;4942182;28;20039;-66
2022/11/18 01:43:16;;;;;;;1.55;1.05;;;1.40;99.90;;;;;;4941498;28;20035;-69
2022/11/18 01:45:46;;;;;;;3.03;1.30;;;1.50;99.90;;;;;;4939313;28;20151;-69
2022/11/18 01:48:20;;;;;;;1.92;1.35;;;1.60;99.90;;;;;;4941240;28;20059;-67
2022/11/18 01:51:00;;;;;;;2.25;1.35;;;1.70;99.90;;;;;;4939080;28;20075;-68
2022/11/18 01:53:32;;;;;;;1.20;1.10;;;1.70;99.90;;;;;;4940316;28;20536;-67
2022/11/18 01:56:05;;;;;;;1.33;1.13;;;1.70;99.90;;;;;;4941090;28;20035;-66
2022/11/18 01:58:39;;;;;;;2.35;1.30;;;1.70;99.90;;;;;;4940412;28;20066;-66
2022/11/18 02:01:07;;;;;;;2.63;1.50;;;1.70;99.90;;;;;;4937809;28;20039;-70
2022/11/18 02:03:34;;;;;;;1.65;1.25;;;1.60;99.90;;;;;;4940122;28;20051;-67
2022/11/18 02:06:03;;;;;;;1.85;1.30;;;1.60;99.90;;;;;;4937588;28;20062;-70
2022/11/18 02:08:31;;;;;;;2.65;1.38;;;1.60;99.90;;;;;;4940742;28;20061;-66
2022/11/18 02:10:58;;;;;;;1.65;1.55;;;1.60;99.90;;;;;;4939322;28;20470;-69
2022/11/18 02:13:25;;;;;;;3.67;1.48;;;1.60;99.90;;;;;;4941969;28;20481;-71
2022/11/18 02:16:24;;;;;;;4.25;1.33;;;1.60;99.90;;;;;;4938958;28;20430;-71
2022/11/18 02:19:00;;;;;;;2.58;1.30;;;1.60;99.90;;;;;;4952824;28;20042;-71
2022/11/18 02:21:47;;;;;;;1.65;1.48;;;1.50;99.90;;;;;;4939185;28;20051;-68
2022/11/18 02:24:50;;;;;;;0.88;0.80;;;1.50;99.90;;;;;;4938967;28;20051;-73
2022/11/18 02:27:43;;;;;;;1.17;1.05;;;1.60;99.90;;;;;;4942200;28;20044;-66
2022/11/18 02:30:12;;;;;;;1.55;0.85;;;1.50;99.90;;;;;;4937392;28;20162;-66
2022/11/18 02:32:45;;;;;;;2.50;0.80;;;1.50;99.90;;;;;;4944592;28;20101;-67
2022/11/18 02:35:38;;;;;;;1.27;0.93;;;1.50;99.90;;;;;;4940189;28;20438;-67
2022/11/18 02:38:23;;;;;;;2.83;0.90;;;1.50;99.90;;;;;;4937821;28;20139;-66
2022/11/18 02:40:58;;;;;;;0.82;0.75;;;1.50;99.90;;;;;;4942764;28;20702;-66
2022/11/18 02:43:45;;;;;;;1.45;1.20;;;1.50;99.90;;;;;;4945763;28;20043;-67
2022/11/18 02:46:18;;;;;;;2.65;0.85;;;1.50;99.90;;;;;;4938818;28;20130;-67
2022/11/18 02:48:49;;;;;;;2.97;1.17;;;1.50;99.90;;;;;;4943509;28;20082;-68
2022/11/18 02:51:23;;;;;;;1.42;0.90;;;1.50;99.90;;;;;;4944639;28;20907;-69
2022/11/18 02:53:55;;;;;;;2.55;0.90;;;1.50;99.90;;;;;;4940562;28;20044;-66
2022/11/18 02:56:24;;;;;;;2.35;0.93;;;1.50;99.90;;;;;;4944806;28;20367;-67
2022/11/18 02:58:51;;;;;;;2.45;2.25;;;1.50;99.90;;;;;;4944462;28;20043;-70
2022/11/18 03:01:28;;;;;;;1.38;0.98;;;1.50;99.90;;;;;;4937752;28;20363;-68
2022/11/18 03:03:56;;;;;;;2.55;1.45;;;1.50;99.90;;;;;;4939467;28;20437;-70
2022/11/18 03:06:26;;;;;;;1.40;1.30;;;1.50;99.90;;;;;;4942001;28;20059;-66
2022/11/18 03:09:31;;;;;;;1.10;0.98;;;1.50;99.90;;;;;;4944807;28;20496;-68
2022/11/18 03:12:01;;;;;;;1.95;0.80;;;1.40;99.90;;;;;;4945133;28;20043;-68
2022/11/18 03:14:42;;;;;;;1.38;0.80;;;1.40;99.90;;;;;;4938631;28;20063;-66
2022/11/18 03:17:28;;;;;;;1.55;0.90;;;1.40;99.90;;;;;;4945575;28;20145;-70
2022/11/18 03:20:14;;;;;;;1.98;1.02;;;1.40;99.90;;;;;;4944151;28;20070;-69
2022/11/18 03:22:52;;;;;;;1.05;0.95;;;1.30;99.90;;;;;;4941010;28;20478;-66
2022/11/18 03:25:35;;;;;;;2.97;1.50;;;1.30;99.90;;;;;;4944711;28;20051;-68
2022/11/18 03:28:29;;;;;;;2.00;0.85;;;1.20;99.90;;;;;;4939562;28;20054;-67
2022/11/18 03:30:59;;;;;;;1.13;0.77;;;1.20;99.90;;;;;;4945093;28;20077;-69
2022/11/18 03:33:34;;;;;;;1.23;0.88;;;1.20;99.90;;;;;;4946484;28;20039;-69
2022/11/18 03:36:06;;;;;;;1.38;0.82;;;1.20;99.90;;;;;;4939723;28;20732;-70
2022/11/18 03:38:38;;;;;;;2.00;0.95;;;1.10;99.90;;;;;;4942117;28;20043;-67
2022/11/18 03:41:09;;;;;;;1.73;1.15;;;1.10;99.90;;;;;;4946081;28;20422;-68
2022/11/18 03:43:42;;;;;;;0.80;0.70;;;1.10;99.90;;;;;;4942155;28;20082;-71
2022/11/18 03:46:14;;;;;;;1.25;1.13;;;1.10;99.90;;;;;;4941377;28;20118;-68
2022/11/18 03:48:49;;;;;;;4.63;0.70;;;1.00;99.90;;;;;;4942803;28;20070;-69
2022/11/18 03:51:28;;;;;;;0.73;0.50;;;1.00;99.90;;;;;;4939622;28;20057;-68
2022/11/18 03:54:05;;;;;;;0.85;0.60;;;1.00;99.90;;;;;;4940145;28;20058;-71
2022/11/18 03:56:41;;;;;;;0.52;0.40;;;1.00;99.90;;;;;;4943682;28;20054;-69
2022/11/18 03:59:25;;;;;;;0.60;0.57;;;1.00;99.90;;;;;;4945212;28;20173;-70
2022/11/18 04:01:56;;;;;;;1.02;0.50;;;1.00;99.90;;;;;;4940542;28;20143;-66
2022/11/18 04:04:25;;;;;;;3.75;1.13;;;1.00;99.90;;;;;;4944721;28;20051;-69
2022/11/18 04:07:16;;;;;;;1.40;0.80;;;1.00;99.90;;;;;;4936814;28;20056;-71
2022/11/18 04:09:55;;;;;;;1.13;0.85;;;1.00;99.90;;;;;;4944500;28;20138;-67
2022/11/18 04:12:25;;;;;;;0.80;0.80;;;0.90;99.90;;;;;;4941060;28;20142;-67
2022/11/18 04:14:54;;;;;;;1.75;0.98;;;0.90;99.90;;;;;;4941851;28;20047;-69
2022/11/18 04:17:25;;;;;;;0.93;0.93;;;0.90;99.90;;;;;;4941962;28;20093;-66
2022/11/18 04:19:52;;;;;;;1.83;1.42;;;1.00;99.90;;;;;;4938497;28;20058;-68
2022/11/18 04:22:20;;;;;;;0.82;0.82;;;1.00;99.90;;;;;;4942192;28;20142;-66
2022/11/18 04:24:47;;;;;;;1.67;1.00;;;1.00;99.90;;;;;;4939240;28;20755;-66
2022/11/18 04:27:14;;;;;;;1.42;1.00;;;1.00;99.90;;;;;;4941221;28;20051;-72
2022/11/18 04:29:41;;;;;;;2.78;1.25;;;1.00;99.90;;;;;;4941942;28;20059;-65
2022/11/18 04:32:08;;;;;;;1.50;1.00;;;1.00;99.90;;;;;;4937799;28;20159;-66
2022/11/18 04:34:35;;;;;;;0.90;0.90;;;1.00;99.90;;;;;;4938248;28;20055;-70
2022/11/18 04:37:02;;;;;;;1.05;0.95;;;1.00;99.90;;;;;;4939748;28;20050;-68
2022/11/18 04:39:28;;;;;;;2.25;0.90;;;1.00;99.90;;;;;;4941397;28;20408;-68
2022/11/18 04:41:55;;;;;;;1.15;0.85;;;1.00;99.90;;;;;;4941715;28;20039;-74
2022/11/18 04:44:30;;;;;;;2.05;1.00;;;1.00;99.90;;;;;;4938349;28;20051;-69
2022/11/18 04:47:00;;;;;;;1.55;1.05;;;1.00;99.90;;;;;;4938125;28;20046;-67
2022/11/18 04:49:27;;;;;;;1.40;1.30;;;1.00;99.90;;;;;;4944172;28;20126;-66
2022/11/18 04:51:55;;;;;;;1.13;0.88;;;1.00;99.90;;;;;;4941442;28;20047;-66
2022/11/18 04:54:23;;;;;;;1.30;1.15;;;1.00;99.90;;;;;;4941044;28;21092;-69
2022/11/18 04:56:50;;;;;;;1.73;1.20;;;1.00;99.90;;;;;;4941123;28;20071;-67
2022/11/18 04:59:19;;;;;;;1.20;0.90;;;1.00;99.90;;;;;;4939836;28;20047;-67
2022/11/18 05:01:47;;;;;;;1.95;0.70;;;0.90;99.90;;;;;;4940844;28;20051;-65
2022/11/18 05:04:17;;;;;;;2.40;1.48;;;0.90;99.90;;;;;;4938380;28;20134;-70
2022/11/18 05:06:44;;;;;;;2.05;1.10;;;0.90;99.90;;;;;;4942564;28;20055;-66
2022/11/18 05:09:11;;;;;;;1.55;1.20;;;0.90;99.90;;;;;;4942026;28;20074;-66
2022/11/18 05:14:25;;;;;;;1.55;1.40;;;0.90;99.90;;;;;;4938737;28;20069;-69
2022/11/18 05:16:54;;;;;;;1.60;1.00;;;0.80;99.90;;;;;;4934455;28;20051;-71
2022/11/18 05:19:21;;;;;;;1.77;1.00;;;0.80;99.90;;;;;;4943832;28;20410;-68
2022/11/18 05:21:48;;;;;;;1.85;1.48;;;0.80;99.90;;;;;;4936630;28;20047;-72
2022/11/18 05:24:15;;;;;;;5.38;1.73;;;0.70;99.90;;;;;;4938810;28;20062;-66
2022/11/18 05:26:43;;;;;;;3.90;1.70;;;0.70;99.90;;;;;;4946461;28;20043;-67
2022/11/18 05:29:10;;;;;;;5.32;2.47;;;0.60;99.90;;;;;;4941276;28;20138;-66
2022/11/18 05:31:37;;;;;;;3.50;1.65;;;0.60;99.90;;;;;;4938331;28;20104;-66
2022/11/18 05:34:04;;;;;;;2.20;1.50;;;0.60;99.90;;;;;;4940437;28;20828;-65
2022/11/18 05:36:31;;;;;;;0.93;0.75;;;0.60;99.90;;;;;;4942178;28;20125;-68
2022/11/18 05:38:58;;;;;;;1.15;1.05;;;0.60;99.90;;;;;;4942723;28;20046;-67
2022/11/18 05:44:11;;;;;;;1.50;0.88;;;0.70;99.90;;;;;;4931630;28;20055;-69
2022/11/18 05:46:38;;;;;;;2.70;0.80;;;0.70;99.90;;;;;;4942712;28;20517;-68
2022/11/18 05:49:06;;;;;;;1.15;1.05;;;0.70;99.90;;;;;;4935578;28;20107;-67
2022/11/18 05:51:33;;;;;;;1.20;1.05;;;0.80;99.90;;;;;;4940626;28;20054;-66
2022/11/18 05:54:06;;;;;;;2.03;1.10;;;0.80;99.90;;;;;;4941962;28;20466;-66
2022/11/18 05:56:44;;;;;;;4.45;1.40;;;0.90;99.90;;;;;;4942881;28;20110;-71
2022/11/18 05:59:12;;;;;;;1.30;1.00;;;0.90;99.90;;;;;;4941609;28;20067;-69
2022/11/18 06:01:54;;;;;;;3.08;1.02;;;0.90;99.90;;;;;;4942810;28;20042;-71
2022/11/18 06:04:24;;;;;;;1.55;1.42;;;0.90;99.90;;;;;;4937898;28;20133;-69
2022/11/18 06:06:57;;;;;;;2.35;1.63;;;0.90;99.90;;;;;;4945696;28;20081;-66
2022/11/18 06:09:27;;;;;;;3.30;3.00;;;0.90;99.90;;;;;;4940283;28;20430;-67
2022/11/18 06:11:57;;;;;;;2.78;1.77;;;0.90;99.90;;;;;;4945196;28;20050;-66
2022/11/18 06:14:40;;;;;;;2.70;1.60;;;0.90;99.90;;;;;;4943440;28;20055;-73
2022/11/18 06:17:15;;;;;;;1.60;1.48;;;0.90;99.90;;;;;;4942385;28;20134;-68
2022/11/18 06:19:42;;;;;;;1.40;1.30;;;0.80;99.90;;;;;;4944553;28;20047;-67
2022/11/18 06:22:09;;;;;;;3.00;1.40;;;0.90;99.90;;;;;;4942662;28;20118;-66
2022/11/18 06:24:37;;;;;;;1.52;1.42;;;0.90;99.90;;;;;;4947419;28;20600;-67
2022/11/18 06:27:05;;;;;;;1.70;1.60;;;0.90;99.90;;;;;;4949230;28;20062;-71
2022/11/18 06:29:32;;;;;;;2.33;1.40;;;0.90;99.90;;;;;;4943562;28;20142;-65
2022/11/18 06:31:59;;;;;;;1.70;1.10;;;1.00;99.90;;;;;;4941321;28;20049;-68
2022/11/18 06:34:25;;;;;;;1.50;1.30;;;1.00;99.90;;;;;;4942333;28;20130;-67
2022/11/18 06:36:52;;;;;;;2.40;1.15;;;1.10;99.90;;;;;;4944968;28;20056;-66
2022/11/18 06:39:20;;;;;;;1.63;1.20;;;1.10;99.90;;;;;;4943385;28;20369;-66
2022/11/18 06:41:47;;;;;;;2.00;1.17;;;1.10;99.90;;;;;;4949944;28;20759;-67
2022/11/18 06:44:14;;;;;;;1.58;1.48;;;1.20;99.90;;;;;;4942638;28;20057;-68
2022/11/18 06:46:56;;;;;;;1.20;1.10;;;1.20;99.90;;;;;;4944349;28;20058;-67
2022/11/18 06:49:24;;;;;;;1.92;1.20;;;1.20;99.90;;;;;;4939668;28;20051;-68
2022/11/18 06:51:51;;;;;;;2.03;1.45;;;1.20;99.90;;;;;;4945544;28;20047;-66
2022/11/18 06:54:18;;;;;;;1.60;1.45;;;1.30;99.90;;;;;;4948764;28;20039;-65
2022/11/18 06:56:45;;;;;;;1.70;1.10;;;1.20;99.90;;;;;;4946414;28;20075;-67
2022/11/18 06:59:13;;;;;;;3.35;1.63;;;1.20;99.90;;;;;;4946020;28;20474;-69
2022/11/18 07:01:41;;;;;;;4.40;1.92;;;1.20;99.90;;;;;;4948907;28;20051;-66
2022/11/18 07:04:08;;;;;;;2.85;1.55;;;1.20;99.90;;;;;;4943916;28;20071;-71
2022/11/18 07:06:35;;;;;;;1.83;1.60;;;1.20;99.90;;;;;;4943826;28;20043;-67
2022/11/18 07:09:05;;;;;;;1.50;1.40;;;1.20;99.90;;;;;;4944059;28;20054;-70
2022/11/18 07:11:33;;;;;;;1.98;1.77;;;1.20;99.90;;;;;;4938423;28;20455;-67
2022/11/18 07:14:00;;;;;;;4.90;1.42;;;1.20;99.90;;;;;;4938578;28;20142;-66
2022/11/18 07:16:27;;;;;;;1.42;1.33;;;1.20;99.90;;;;;;4946007;28;20125;-72
2022/11/18 07:18:55;;;;;;;3.35;2.20;;;1.20;99.90;;;;;;4943102;28;20083;-68
2022/11/18 07:21:26;;;;;;;2.20;1.90;;;1.20;99.90;;;;;;4945466;28;20063;-66
2022/11/18 07:23:55;;;;;;;1.67;1.58;;;1.20;99.90;;;;;;4943015;28;20474;-67
2022/11/18 07:26:22;;;;;;;3.45;2.40;;;1.20;99.90;;;;;;4945489;28;20068;-68
2022/11/18 07:28:49;;;;;;;2.30;2.10;;;1.20;99.90;;;;;;4946204;28;20130;-67
2022/11/18 07:31:19;;;;;;;3.38;2.17;;;1.20;99.90;;;;;;4943963;28;20138;-67
2022/11/18 07:33:47;;;;;;;3.83;2.15;;;1.20;99.90;;;;;;4946291;28;20047;-68
2022/11/18 07:36:16;;;;;;;2.50;2.10;;;1.30;99.90;;;;;;4941186;28;20151;-66
2022/11/18 07:38:44;;;;;;;2.28;1.83;;;1.30;99.90;;;;;;4941622;28;20166;-67
2022/11/18 07:41:18;;;;;;;3.05;2.20;;;1.30;99.90;;;;;;4945046;28;20070;-66
2022/11/18 07:43:45;;;;;;;2.35;1.98;;;1.30;99.90;;;;;;4945169;28;20051;-65
2022/11/18 07:46:26;;;;;;;3.67;2.22;;;1.30;99.90;;;;;;4941804;28;20063;-66
2022/11/18 07:48:54;;;;;;;3.40;2.30;;;1.40;99.90;;;;;;4944016;28;20059;-68
2022/11/18 07:51:24;;;;;;;2.97;2.53;;;1.40;99.90;;;;;;4938202;28;20182;-66
2022/11/18 07:53:51;;;;;;;2.65;2.25;;;1.40;99.90;;;;;;4942380;28;20133;-67
2022/11/18 07:56:19;;;;;;;2.75;2.40;;;1.40;99.90;;;;;;4943027;28;21095;-68
2022/11/18 07:58:46;;;;;;;2.30;2.10;;;1.50;99.90;;;;;;4946971;28;20142;-68
2022/11/18 08:01:18;;;;;;;2.13;1.63;;;1.50;99.90;;;;;;4945702;28;20067;-67
2022/11/18 08:03:45;;;;;;;2.13;1.90;;;1.50;99.90;;;;;;4945941;28;20102;-71
2022/11/18 08:06:15;;;;;;;3.65;1.08;;;1.50;99.90;;;;;;4943768;28;20053;-66
2022/11/18 08:08:43;;;;;;;1.00;0.98;;;1.60;99.90;;;;;;4944896;28;20479;-65
2022/11/18 08:11:12;;;;;;;1.20;1.08;;;1.60;99.90;;;;;;4945061;28;20138;-71
2022/11/18 08:13:47;;;;;;;2.00;1.27;;;1.60;99.90;;;;;;4944106;28;20051;-67
2022/11/18 08:16:17;;;;;;;1.15;1.05;;;1.60;99.90;;;;;;4940765;28;20134;-69
2022/11/18 08:18:44;;;;;;;1.52;0.85;;;1.60;99.90;;;;;;4943319;28;20063;-66
2022/11/18 08:21:12;;;;;;;1.70;0.82;;;1.60;99.90;;;;;;4947017;28;20247;-67
2022/11/18 08:23:39;;;;;;;2.03;1.23;;;1.70;99.90;;;;;;4945332;28;20143;-66
2022/11/18 08:26:12;;;;;;;1.17;0.90;;;1.70;99.90;;;;;;4937831;28;20178;-66
2022/11/18 08:28:43;;;;;;;1.42;1.00;;;1.80;99.90;;;;;;4942632;28;20131;-66
2022/11/18 08:31:12;;;;;;;2.45;1.00;;;1.80;99.90;;;;;;4941827;28;20126;-67
2022/11/18 08:33:39;;;;;;;4.57;0.98;;;1.80;99.90;;;;;;4944194;28;20130;-66
2022/11/18 08:36:17;;;;;;;1.10;0.98;;;1.80;99.90;;;;;;4941305;28;20051;-66
2022/11/18 08:38:44;;;;;;;1.88;0.70;;;1.90;99.90;;;;;;4944000;28;20155;-67
2022/11/18 08:41:18;;;;;;;1.70;1.20;;;1.90;99.90;;;;;;4942676;28;20053;-66
2022/11/18 08:43:44;;;;;;;4.63;0.90;;;1.90;99.90;;;;;;4941937;28;20114;-68
2022/11/18 08:46:11;;;;;;;2.22;1.15;;;1.90;99.90;;;;;;4938175;28;20040;-66
2022/11/18 08:48:38;;;;;;;2.67;0.77;;;1.90;99.90;;;;;;4940356;28;20159;-69
2022/11/18 08:51:08;;;;;;;1.75;0.57;;;1.90;99.90;;;;;;4941578;28;20043;-70
2022/11/18 08:53:34;;;;;;;3.45;1.40;;;1.90;99.90;;;;;;4942597;28;20134;-68
2022/11/18 08:56:01;;;;;;;2.20;1.05;;;1.90;99.90;;;;;;4940078;28;20129;-66
2022/11/18 08:58:29;;;;;;;1.67;1.05;;;1.90;99.90;;;;;;4943859;28;20434;-66
2022/11/18 09:00:56;;;;;;;1.63;1.25;;;2.00;99.90;;;;;;4944965;28;20041;-69
2022/11/18 09:03:23;;;;;;;1.48;0.95;;;2.00;99.90;;;;;;4943156;28;20706;-66
2022/11/18 09:05:49;;;;;;;1.10;0.88;;;2.00;99.90;;;;;;4939610;28;20601;-69
2022/11/18 09:08:16;;;;;;;3.90;0.98;;;2.10;99.90;;;;;;4961234;28;20067;-66
2022/11/18 09:10:43;;;;;;;1.42;0.90;;;2.00;99.90;;;;;;4946928;28;20063;-65
2022/11/18 09:13:10;;;;;;;1.23;0.68;;;2.00;99.90;;;;;;4943463;28;20051;-68
2022/11/18 09:15:58;;;;;;;1.13;0.68;;;2.00;99.90;;;;;;4944126;28;20043;-67
2022/11/18 09:18:25;;;;;;;1.77;0.60;;;1.90;99.90;;;;;;4941231;28;20073;-68
2022/11/18 09:21:08;;;;;;;1.48;1.38;;;1.90;99.90;;;;;;4942088;28;20085;-66
2022/11/18 09:23:36;;;;;;;1.05;0.47;;;1.90;99.90;;;;;;4945351;28;20150;-66
2022/11/18 09:26:06;;;;;;;1.58;0.73;;;1.80;99.90;;;;;;4942171;28;20050;-67
2022/11/18 09:28:33;;;;;;;1.08;0.75;;;1.70;99.90;;;;;;4938978;28;20047;-67
2022/11/18 09:31:09;;;;;;;1.25;0.82;;;1.70;99.90;;;;;;4942128;28;20047;-69
2022/11/18 09:33:37;;;;;;;1.60;1.50;;;1.70;99.90;;;;;;4946206;28;20053;-67
2022/11/18 09:36:10;;;;;;;4.63;0.85;;;1.70;99.90;;;;;;4940067;28;20051;-68
2022/11/18 09:38:37;;;;;;;2.75;0.75;;;1.70;99.90;;;;;;4942739;28;20055;-67
2022/11/18 09:41:32;;;;;;;1.15;0.80;;;1.70;99.90;;;;;;4941545;28;20142;-66
2022/11/18 09:44:36;;;;;;;2.13;0.95;;;1.70;99.90;;;;;;4942039;28;20355;-67
2022/11/18 09:47:24;;;;;;;2.35;1.00;;;1.80;99.90;;;;;;4936646;28;20054;-66
2022/11/18 09:49:53;;;;;;;1.85;1.05;;;1.80;99.90;;;;;;4939652;28;20479;-66
2022/11/18 09:53:07;;;;;;;0.77;0.52;;;1.80;99.90;;;;;;4940410;28;20138;-66
2022/11/18 09:55:38;;;;;;;0.95;0.95;;;1.80;99.90;;;;;;4955735;28;20047;-66
2022/11/18 09:58:06;;;;;;;0.82;0.73;;;1.80;99.90;;;;;;4941142;28;20048;-66
2022/11/18 10:00:33;;;;;;;1.55;1.05;;;1.80;99.90;;;;;;4939572;28;20544;-66
2022/11/18 10:03:04;;;;;;;0.73;0.73;;;1.80;99.90;;;;;;4958282;28;20843;-70
2022/11/18 10:05:48;;;;;;;1.45;1.35;;;1.90;99.90;;;;;;4940190;28;20059;-66
2022/11/18 10:08:15;;;;;;;1.17;1.08;;;1.90;99.90;;;;;;4941006;28;20126;-66
2022/11/18 10:11:10;;;;;;;1.00;0.70;;;1.90;99.90;;;;;;4946602;28;20145;-67
2022/11/18 10:13:58;;;;;;;0.80;0.80;;;1.90;99.90;;;;;;4979646;28;20051;-67
2022/11/18 10:16:28;;;;;;;2.80;1.10;;;1.90;99.90;;;;;;4950601;28;20221;-67
2022/11/18 10:19:21;;;;;;;1.77;1.33;;;1.90;99.90;;;;;;4968699;28;20050;-69
2022/11/18 10:22:07;;;;;;;1.35;1.23;;;1.90;99.90;;;;;;4987282;28;20122;-66
2022/11/18 10:24:50;;;;;;;1.38;0.88;;;1.90;99.90;;;;;;4961813;28;20142;-67
2022/11/18 10:27:17;;;;;;;1.63;0.90;;;2.00;99.90;;;;;;4960403;28;20105;-66
2022/11/18 10:29:52;;;;;;;1.27;1.13;;;2.00;99.90;;;;;;4966116;28;20050;-67
2022/11/18 10:32:20;;;;;;;1.00;0.85;;;2.00;99.90;;;;;;4973021;28;20089;-65
2022/11/18 10:34:53;;;;;;;0.90;0.82;;;2.00;99.90;;;;;;4959851;28;20069;-67
2022/11/18 10:37:35;;;;;;;1.13;0.95;;;2.10;99.90;;;;;;4957962;28;20090;-67
2022/11/18 10:40:28;;;;;;;2.35;1.08;;;2.10;99.90;;;;;;4952961;28;20466;-67
2022/11/18 10:42:55;;;;;;;1.23;1.08;;;2.10;99.90;;;;;;4971345;28;20055;-68
2022/11/18 10:45:22;;;;;;;1.30;1.00;;;2.10;99.90;;;;;;4960336;28;20043;-66
2022/11/18 10:48:18;;;;;;;1.10;1.00;;;2.10;99.90;;;;;;4963151;28;20039;-68
2022/11/18 10:50:45;;;;;;;1.23;1.05;;;2.10;99.90;;;;;;4961755;28;20050;-67
2022/11/18 10:53:32;;;;;;;1.38;1.27;;;2.10;99.90;;;;;;4963960;28;20034;-67
2022/11/18 10:56:00;;;;;;;1.50;0.98;;;2.20;99.90;;;;;;4950071;28;20154;-66
2022/11/18 10:58:35;;;;;;;2.63;1.20;;;2.20;99.90;;;;;;4989723;28;20055;-66
2022/11/18 11:01:07;;;;;;;1.63;1.10;;;2.20;99.90;;;;;;4959828;28;20061;-69
2022/11/18 11:03:39;;;;;;;1.77;1.02;;;2.20;99.90;;;;;;4961760;28;20636;-69
2022/11/18 11:06:24;;;;;;;2.17;1.20;;;2.30;99.90;;;;;;4963393;28;20043;-67
2022/11/18 11:09:24;;;;;;;1.83;1.42;;;2.30;99.90;;;;;;4962983;28;20113;-70
2022/11/18 11:12:16;;;;;;;2.03;0.90;;;2.30;99.90;;;;;;4961927;28;20556;-66
2022/11/18 11:14:53;;;;;;;1.48;1.10;;;2.30;99.90;;;;;;4959089;28;20059;-66
2022/11/18 11:17:32;;;;;;;1.65;1.38;;;2.30;99.90;;;;;;4960303;28;20086;-67
2022/11/18 11:20:18;;;;;;;1.65;1.15;;;2.30;99.90;;;;;;4964994;28;20054;-68
2022/11/18 11:22:45;;;;;;;1.45;1.10;;;2.40;99.90;;;;;;4964880;28;20042;-67
2022/11/18 11:25:21;;;;;;;1.40;1.30;;;2.40;99.90;;;;;;4961924;28;20046;-65
2022/11/18 11:28:03;;;;;;;1.73;1.05;;;2.40;99.90;;;;;;4962518;28;20065;-66
2022/11/18 11:31:10;;;;;;;1.08;0.98;;;2.40;99.90;;;;;;4962869;28;20129;-68
2022/11/18 11:33:52;;;;;;;1.75;0.95;;;2.40;99.90;;;;;;4979059;28;20878;-68
2022/11/18 11:36:59;;;;;;;1.33;1.05;;;2.40;99.90;;;;;;4960062;28;20105;-70
2022/11/18 11:39:45;;;;;;;1.50;1.38;;;2.50;99.90;;;;;;4955122;28;20043;-66
2022/11/18 11:43:04;;;;;;;8.63;1.75;;;2.50;99.90;;;;;;4957180;28;20158;-65
2022/11/18 11:45:57;;;;;;;1.25;1.10;;;2.40;99.90;;;;;;4938601;28;20133;-68
2022/11/18 11:48:27;;;;;;;3.33;1.20;;;2.30;99.90;;;;;;4961859;28;20059;-67
2022/11/18 11:51:02;;;;;;;5.03;1.48;;;2.30;99.90;;;;;;4965512;28;20138;-70
2022/11/18 11:53:57;;;;;;;1.88;1.10;;;2.30;99.90;;;;;;4963709;28;20381;-67
2022/11/18 11:56:37;;;;;;;5.22;1.75;;;2.20;99.90;;;;;;4990170;28;20371;-66
2022/11/18 11:59:07;;;;;;;10.00;1.73;;;2.20;99.90;;;;;;4961729;28;20106;-66
2022/11/18 12:01:39;;;;;;;;;;;2.10;99.90;;;;;;4965899;28;20051;-66
2022/11/18 12:04:29;;;;;;;7.05;1.20;;;2.10;99.90;;;;;;4963184;28;19945;-67
2022/11/18 12:06:57;;;;;;;3.03;1.05;;;2.00;99.90;;;;;;4945631;28;20038;-69
2022/11/18 12:09:49;;;;;;;1.25;1.15;;;2.00;99.90;;;;;;4961544;28;20051;-67
2022/11/18 12:12:36;;;;;;;2.67;1.15;;;2.00;99.90;;;;;;4959801;28;20046;-67
2022/11/18 12:15:15;;;;;;;5.93;3.05;;;2.00;99.90;;;;;;4957325;28;20050;-70
2022/11/18 12:17:53;;;;;;;2.33;1.60;;;1.90;99.90;;;;;;4962620;28;20046;-66
2022/11/18 12:20:39;;;;;;;2.10;1.17;;;1.90;99.90;;;;;;4957125;28;20050;-70
2022/11/18 12:23:16;;;;;;;1.35;1.15;;;2.00;99.90;;;;;;4963460;28;20478;-65
2022/11/18 12:25:46;;;;;;;5.18;1.38;;;2.00;99.90;;;;;;4961797;28;20038;-65
2022/11/18 12:28:28;;;;;;;6.03;1.50;;;2.00;99.90;;;;;;4963935;28;20133;-64
2022/11/18 12:31:17;;;;;;;2.30;1.42;;;2.20;99.90;;;;;;4962582;28;20356;-69
2022/11/18 12:33:55;;;;;;;5.15;1.80;;;2.20;99.90;;;;;;4963439;28;20049;-64
2022/11/18 12:36:33;;;;;;;2.13;1.60;;;2.30;99.90;;;;;;4962085;28;20054;-67
2022/11/18 12:39:24;;;;;;;3.88;1.10;;;2.30;99.90;;;;;;4959496;28;20131;-66
2022/11/18 12:44:51;;;;;;;2.35;1.00;;;2.30;99.90;;;;;;4958449;28;20386;-65
2022/11/18 12:47:43;;;;;;;1.55;1.10;;;2.30;99.90;;;;;;4962079;28;20039;-68
2022/11/18 12:50:14;;;;;;;11.25;2.47;;;2.30;99.90;;;;;;4960803;28;20337;-65
2022/11/18 12:52:41;;;;;;;3.65;1.38;;;2.40;99.90;;;;;;4960941;28;20137;-65
2022/11/18 12:55:20;;;;;;;6.28;1.33;;;2.40;99.90;;;;;;4962651;28;20454;-65
2022/11/18 12:57:48;;;;;;;8.25;1.65;;;2.30;99.90;;;;;;4956211;28;20501;-67
2022/11/18 13:00:23;;;;;;;5.13;0.80;;;2.30;99.90;;;;;;4955091;28;20053;-65
2022/11/18 13:02:57;;;;;;;2.28;2.03;;;2.30;99.90;;;;;;4968623;28;20070;-66
2022/11/18 13:05:29;;;;;;;3.97;1.73;;;2.20;99.90;;;;;;4962710;28;20043;-64
2022/11/18 13:08:13;;;;;;;;;;;2.20;99.90;;;;;;4962706;28;20432;-67
2022/11/18 13:11:43;;;;;;;4.78;1.30;;;2.20;99.90;;;;;;4955655;28;20001;-64
2022/11/18 13:13:44;;;;;;;2.35;1.65;;;2.10;99.90;;;;;;4979337;28;20385;-64
2022/11/18 13:19:21;;;;;;;3.10;1.50;;;2.00;99.90;;;;;;4960649;28;20038;-68
2022/11/18 13:24:47;;;;;;;2.97;1.50;;;1.90;99.90;;;;;;4956155;28;20051;-65
2022/11/18 13:27:34;;;;;;;5.43;1.08;;;1.90;99.90;;;;;;4958935;28;20055;-65
2022/11/18 13:30:05;;;;;;;3.50;1.30;;;1.80;99.90;;;;;;4955858;28;20166;-71
2022/11/18 13:32:32;;;;;;;4.65;1.48;;;1.80;99.90;;;;;;4964885;28;20057;-65
2022/11/18 13:35:15;;;;;;;3.65;1.13;;;1.80;99.90;;;;;;4959555;28;20051;-70
2022/11/18 13:37:51;;;;;;;5.20;1.60;;;1.80;99.90;;;;;;4960078;28;20138;-66
2022/11/18 13:40:21;;;;;;;1.65;0.98;;;1.70;99.90;;;;;;4959094;28;20517;-66
2022/11/18 13:42:49;;;;;;;1.90;1.35;;;1.70;99.90;;;;;;4952642;28;20485;-65
2022/11/18 13:45:16;;;;;;;4.35;1.10;;;1.70;99.90;;;;;;4960458;28;20043;-65
2022/11/18 13:48:11;;;;;;;5.35;1.88;;;1.70;99.90;;;;;;4959487;28;20074;-66